Friday, December 19, 2014, 3:12 PM EST

KUNV, State College, University Park Airport

Location: State College, PA, United States Lat: 40.85
Local Time: 3:12 PM EST (20:12 GMT) Lon: -77.85
Time Zone: US/Eastern Elev: 1240 ft

Show me the last for .
Show Decoded

2014-12-19 14:53 METAR KUNV 191953Z 30006KT 10SM BKN029 00/M07 A3012 =
2014-12-19 13:53 METAR KUNV 191853Z 31007KT 10SM OVC029 00/M06 A3010 =
2014-12-19 12:53 METAR KUNV 191753Z 31007KT 10SM OVC027 00/M06 A3010 =
2014-12-19 11:53 METAR KUNV 191653Z 30009KT 10SM OVC025 00/M06 A3009 =
2014-12-19 10:53 METAR KUNV 191553Z 31012KT 10SM OVC025 M01/M06 A3013 =
2014-12-19 09:53 METAR KUNV 191453Z 30012KT 10SM OVC025 M01/M06 A3013 =
2014-12-19 08:53 METAR KUNV 191353Z 30012KT 10SM OVC025 M01/M06 A3012 =
2014-12-19 07:53 METAR KUNV 191253Z 30012KT 10SM OVC025 M01/M05 A3008 =
2014-12-19 06:53 METAR KUNV 191153Z 30012KT 10SM SCT020 OVC029 M01/M05 A3007 =
2014-12-19 05:53 METAR KUNV 191053Z 29010KT 10SM BKN021 OVC027 M01/M04 A3006 =
2014-12-19 05:35 METAR KUNV 191035Z AUTO 27007KT 10SM OVC019 M01/M04 A3006 RMK AO2 T10091041 =
2014-12-19 05:15 METAR KUNV 191015Z AUTO 28006KT 10SM OVC019 M01/M04 A3005 RMK AO2 T10101040 =
2014-12-19 04:55 METAR KUNV 190955Z AUTO 27008KT 10SM OVC019 M01/M04 A3005 RMK AO2 T10101040 =
2014-12-19 04:35 METAR KUNV 190935Z AUTO 27007KT 10SM OVC019 M01/M04 A3005 RMK AO2 T10111040 =
2014-12-19 04:15 METAR KUNV 190915Z AUTO 27009KT 10SM OVC019 M01/M04 A3005 RMK AO2 T10101040 =
2014-12-19 03:55 METAR KUNV 190855Z AUTO 27011G15KT 10SM OVC019 M01/M04 A3005 RMK AO2 T10101043 =
2014-12-19 03:35 METAR KUNV 190835Z AUTO 27006KT 10SM OVC018 M01/M04 A3005 RMK AO2 T10101043 =
2014-12-19 03:15 METAR KUNV 190815Z AUTO 26009KT 10SM OVC020 M01/M04 A3005 RMK AO2 T10101044 =
2014-12-19 02:55 METAR KUNV 190755Z AUTO 28011KT 10SM OVC020 M01/M04 A3005 RMK AO2 T10101042 =
2014-12-19 02:35 METAR KUNV 190735Z AUTO 26006KT 10SM OVC018 M01/M04 A3005 RMK AO2 T10101043 =
2014-12-19 02:15 METAR KUNV 190715Z AUTO 28009KT 10SM OVC018 M01/M04 A3005 RMK AO2 T10101045 =
2014-12-19 01:55 METAR KUNV 190655Z AUTO 28008KT 10SM OVC018 M01/M04 A3004 RMK AO2 T10101045 =
2014-12-19 01:35 METAR KUNV 190635Z AUTO 28010G15KT 10SM OVC018 M01/M04 A3004 RMK AO2 T10101045 =
2014-12-19 01:15 METAR KUNV 190615Z AUTO 29008G15KT 10SM OVC020 M01/M04 A3004 RMK AO2 T10101045 =
2014-12-19 00:55 METAR KUNV 190555Z AUTO 28010KT 10SM OVC020 M01/M04 A3004 RMK AO2 T10101045
                 11007 21011 =
2014-12-19 00:15 METAR KUNV 190515Z AUTO 29008KT 10SM OVC022 M01/M05 A3004 RMK AO2 T10101046 =
2014-12-18 23:55 METAR KUNV 190455Z AUTO 28009KT 10SM OVC022 M01/M04 A3005 RMK AO2 T10101045 =
2014-12-18 23:35 METAR KUNV 190435Z AUTO 29007KT 10SM BKN018 OVC026 M01/M04 A3005 RMK AO2
                 T10111043 =
2014-12-18 23:15 METAR KUNV 190415Z AUTO 28009KT 10SM OVC016 M01/M04 A3005 RMK AO2 T10111043 =
2014-12-18 22:55 METAR KUNV 190355Z AUTO 28008KT 10SM OVC016 M01/M04 A3006 RMK AO2 T10111045
                 410051016 =
2014-12-18 22:15 METAR KUNV 190315Z AUTO 30007KT 10SM OVC016 M01/M04 A3006 RMK AO2 T10101045 =
2014-12-18 21:55 METAR KUNV 190255Z AUTO 27004KT 10SM OVC016 M01/M04 A3006 RMK AO2 T10111044 =
2014-12-18 20:53 METAR KUNV 190153Z 30008G18KT 10SM OVC020 M01/M05 A3007 =
2014-12-18 19:53 METAR KUNV 190053Z 29008G17KT 10SM OVC020 M01/M05 A3007 =
2014-12-18 18:53 METAR KUNV 182353Z 30007KT 10SM OVC022 M01/M05 A3007 =
2014-12-18 17:53 METAR KUNV 182253Z 30007KT 10SM OVC018 M01/M05 A3007 =
2014-12-18 16:53 METAR KUNV 182153Z 29010G16KT 10SM OVC018 M01/M04 A3007 =
2014-12-18 15:53 METAR KUNV 182053Z 27008KT 10SM OVC018 M01/M04 A3006 =

Support USWX by starting your Amazon purchase here.